Time;durP1;ratioP1;P1;durP2;ratioP2;P2;SDS_P1;SDS_P2;PMS_P1;PMS_P2;Temp;Humidity;BMP_temperature;BMP_pressure;BME280_temperature;BME280_humidity;BME280_pressure;Samples;Min_cycle;Max_cycle;Signal;HPM_P1;HPM_P2
2021/12/27 00:00:26;;;;;;;12.80;8.15;;;7.50;99.90;;;;;;5005072;28;20259;-78
2021/12/27 00:02:57;;;;;;;13.07;8.45;;;7.60;99.90;;;;;;5022342;28;20033;-77
2021/12/27 00:05:23;;;;;;;13.10;8.75;;;7.50;99.90;;;;;;5021965;28;20026;-78
2021/12/27 00:07:51;;;;;;;15.63;9.38;;;7.50;99.90;;;;;;5021819;28;20017;-78
2021/12/27 00:10:18;;;;;;;14.73;9.38;;;7.50;99.90;;;;;;5022690;28;20040;-78
2021/12/27 00:12:44;;;;;;;13.85;9.00;;;7.40;99.90;;;;;;5021322;28;20080;-77
2021/12/27 00:15:13;;;;;;;14.23;9.63;;;7.50;99.90;;;;;;5021939;28;20152;-77
2021/12/27 00:17:39;;;;;;;;;;;7.40;99.90;;;;;;5022988;28;20029;-78
2021/12/27 00:20:07;;;;;;;19.02;9.77;;;7.40;99.90;;;;;;5021767;28;19906;-77
2021/12/27 00:22:33;;;;;;;15.15;9.20;;;7.40;99.90;;;;;;5020820;28;20383;-77
2021/12/27 00:24:59;;;;;;;16.27;9.70;;;7.40;99.90;;;;;;5023021;28;20048;-78
2021/12/27 00:27:25;;;;;;;17.27;9.98;;;7.30;99.90;;;;;;5021828;28;20316;-78
2021/12/27 00:29:52;;;;;;;16.92;10.77;;;7.30;99.90;;;;;;5003634;28;20037;-77
2021/12/27 00:32:19;;;;;;;17.38;11.02;;;7.20;99.90;;;;;;5005593;28;20045;-77
2021/12/27 00:34:45;;;;;;;15.98;10.15;;;7.20;99.90;;;;;;5006289;28;20048;-77
2021/12/27 00:37:10;;;;;;;13.73;9.77;;;7.20;99.90;;;;;;4988772;28;20097;-78
2021/12/27 00:39:37;;;;;;;17.10;10.90;;;7.10;99.90;;;;;;5005267;28;20033;-77
2021/12/27 00:42:03;;;;;;;14.93;9.45;;;7.20;99.90;;;;;;5004813;28;20030;-77
2021/12/27 00:44:29;;;;;;;16.48;10.13;;;7.20;99.90;;;;;;5009804;28;20093;-78
2021/12/27 00:46:55;;;;;;;13.38;9.45;;;7.10;99.90;;;;;;5007638;28;20041;-77
2021/12/27 00:49:21;;;;;;;16.67;10.48;;;7.10;99.90;;;;;;5020698;28;20090;-77
2021/12/27 00:51:47;;;;;;;14.65;9.68;;;7.10;99.90;;;;;;5027933;28;20041;-76
2021/12/27 00:54:14;;;;;;;14.23;9.13;;;7.10;99.90;;;;;;5028574;28;20038;-76
2021/12/27 00:56:40;;;;;;;16.23;9.77;;;7.20;99.90;;;;;;5027737;28;20090;-76
2021/12/27 00:59:06;;;;;;;12.98;8.55;;;7.20;99.90;;;;;;5025120;28;20045;-77
2021/12/27 01:01:32;;;;;;;14.43;8.93;;;7.30;99.90;;;;;;5003833;28;20097;-77
2021/12/27 01:03:59;;;;;;;16.85;9.80;;;7.20;99.90;;;;;;5022145;28;20041;-77
2021/12/27 01:06:25;;;;;;;16.55;9.32;;;7.30;99.90;;;;;;5024687;28;20067;-77
2021/12/27 01:08:52;;;;;;;13.65;8.45;;;7.20;99.90;;;;;;5025440;28;20267;-78
2021/12/27 01:11:37;;;;;;;17.45;9.88;;;7.20;99.90;;;;;;5024853;28;20080;-77
2021/12/27 01:14:13;;;;;;;14.20;9.13;;;7.20;99.90;;;;;;5031127;28;20069;-77
2021/12/27 01:16:42;;;;;;;16.05;10.15;;;7.20;99.90;;;;;;5037345;28;20064;-77
2021/12/27 01:19:08;;;;;;;13.43;8.48;;;7.20;99.90;;;;;;5036830;28;20045;-79
2021/12/27 01:21:35;;;;;;;16.40;9.57;;;7.20;99.90;;;;;;5025384;28;20022;-78
2021/12/27 01:24:01;;;;;;;14.40;9.57;;;7.10;99.90;;;;;;5025534;28;20224;-78
2021/12/27 01:26:28;;;;;;;14.60;8.63;;;7.00;99.90;;;;;;5026347;28;20220;-78
2021/12/27 01:28:59;;;;;;;13.85;8.63;;;7.00;99.90;;;;;;5025837;28;20113;-77
2021/12/27 01:31:25;;;;;;;17.00;10.30;;;6.90;99.90;;;;;;5024681;28;20038;-77
2021/12/27 01:33:51;;;;;;;15.27;9.30;;;6.90;99.90;;;;;;5025617;28;20235;-78
2021/12/27 01:36:17;;;;;;;19.23;10.35;;;6.90;99.90;;;;;;5008717;28;20034;-77
2021/12/27 01:38:45;;;;;;;19.50;10.40;;;6.80;99.90;;;;;;5043605;28;20347;-77
2021/12/27 01:41:13;;;;;;;16.75;9.85;;;6.80;99.90;;;;;;5044163;28;20025;-78
2021/12/27 01:43:40;;;;;;;20.52;10.93;;;6.80;99.90;;;;;;5010450;28;20232;-77
2021/12/27 01:46:10;;;;;;;15.40;9.57;;;6.80;99.90;;;;;;5043143;28;20112;-77
2021/12/27 01:48:39;;;;;;;19.15;10.13;;;6.80;99.90;;;;;;5026920;28;20109;-77
2021/12/27 01:51:08;;;;;;;16.02;9.40;;;6.80;99.90;;;;;;5022769;28;20017;-76
2021/12/27 01:53:36;;;;;;;17.42;9.68;;;6.80;99.90;;;;;;5043451;28;20340;-76
2021/12/27 01:56:03;;;;;;;;;;;6.80;99.90;;;;;;5044039;28;20045;-77
2021/12/27 01:58:29;;;;;;;13.40;8.43;;;6.80;99.90;;;;;;5043445;28;19904;-77
2021/12/27 02:00:57;;;;;;;14.45;8.85;;;6.80;99.90;;;;;;5039239;28;20420;-76
2021/12/27 02:03:26;;;;;;;14.45;8.40;;;6.80;99.90;;;;;;5023946;28;20045;-77
2021/12/27 02:05:52;;;;;;;14.10;8.70;;;6.80;99.90;;;;;;5023103;28;20021;-78
2021/12/27 02:08:18;;;;;;;14.32;8.00;;;6.80;99.90;;;;;;5007405;28;20106;-77
2021/12/27 02:10:44;;;;;;;11.35;7.60;;;6.80;99.90;;;;;;5006579;28;20081;-77
2021/12/27 02:13:11;;;;;;;11.52;7.00;;;6.90;99.90;;;;;;5023865;28;20212;-77
2021/12/27 02:15:37;;;;;;;13.52;8.07;;;7.00;99.90;;;;;;5023788;28;20196;-77
2021/12/27 02:18:05;;;;;;;13.35;7.93;;;7.00;99.90;;;;;;5024773;28;20018;-77
2021/12/27 02:20:33;;;;;;;12.02;7.45;;;7.00;99.90;;;;;;5025087;28;20049;-77
2021/12/27 02:23:02;;;;;;;12.68;7.80;;;7.00;99.90;;;;;;5023614;28;20046;-77
2021/12/27 02:25:33;;;;;;;14.30;8.02;;;7.00;99.90;;;;;;5025403;28;20247;-77
2021/12/27 02:28:02;;;;;;;13.02;8.18;;;7.00;99.90;;;;;;5023299;28;20041;-77
2021/12/27 02:30:30;;;;;;;11.73;7.78;;;7.00;99.90;;;;;;5023746;28;20030;-77
2021/12/27 02:33:03;;;;;;;8.57;5.45;;;7.00;99.90;;;;;;5024315;28;20042;-77
2021/12/27 02:35:38;;;;;;;13.93;8.00;;;7.00;99.90;;;;;;5024849;28;20033;-77
2021/12/27 02:38:05;;;;;;;13.07;7.82;;;7.00;99.90;;;;;;5023690;28;20034;-77
2021/12/27 02:40:33;;;;;;;10.90;7.05;;;7.00;99.90;;;;;;5007191;28;20025;-77
2021/12/27 02:43:01;;;;;;;11.50;7.25;;;7.00;99.90;;;;;;5024045;28;20034;-78
2021/12/27 02:45:30;;;;;;;13.40;8.00;;;7.00;99.90;;;;;;5023395;28;20236;-77
2021/12/27 02:47:55;;;;;;;12.30;7.65;;;7.00;99.90;;;;;;5023255;28;20056;-78
2021/12/27 02:50:24;;;;;;;12.30;8.00;;;7.00;99.90;;;;;;5023398;28;20026;-78
2021/12/27 02:58:20;;;;;;;10.52;6.78;;;6.90;99.90;;;;;;5004763;28;20272;-76
2021/12/27 03:00:55;;;;;;;10.20;7.40;;;6.90;99.90;;;;;;5004418;28;20018;-77
2021/12/27 03:03:21;;;;;;;11.07;7.28;;;6.90;99.90;;;;;;5003753;28;20046;-78
2021/12/27 03:05:47;;;;;;;9.48;6.25;;;6.90;99.90;;;;;;5004365;28;20082;-77
2021/12/27 03:08:14;;;;;;;9.95;6.57;;;6.90;99.90;;;;;;5022599;28;20037;-77
2021/12/27 03:10:46;;;;;;;8.88;6.25;;;6.90;99.90;;;;;;5005136;28;20352;-78
2021/12/27 03:13:21;;;;;;;10.02;6.28;;;6.90;99.90;;;;;;5023386;28;20062;-77
2021/12/27 03:15:56;;;;;;;10.60;5.53;;;7.00;99.90;;;;;;5041458;28;20029;-77
2021/12/27 03:18:23;;;;;;;11.27;5.65;;;7.00;99.90;;;;;;5027142;28;20041;-77
2021/12/27 03:20:50;;;;;;;8.77;5.35;;;7.00;99.90;;;;;;5041428;28;20357;-77
2021/12/27 03:23:16;;;;;;;10.07;6.07;;;7.00;99.90;;;;;;5041630;28;20041;-77
2021/12/27 03:25:42;;;;;;;9.20;5.95;;;7.00;99.90;;;;;;5024658;28;20037;-77
2021/12/27 03:28:09;;;;;;;8.65;5.70;;;7.00;99.90;;;;;;5041166;28;20033;-78
2021/12/27 03:30:37;;;;;;;9.43;6.22;;;7.10;99.90;;;;;;5025340;28;20045;-77
2021/12/27 03:33:04;;;;;;;8.35;6.00;;;7.10;99.90;;;;;;5041120;28;20037;-77
2021/12/27 03:35:35;;;;;;;9.13;6.25;;;7.10;99.90;;;;;;5040819;28;20092;-77
2021/12/27 03:38:03;;;;;;;9.35;6.03;;;7.10;99.90;;;;;;5040672;28;20049;-79
2021/12/27 03:40:29;;;;;;;9.77;6.20;;;7.10;99.90;;;;;;5023987;28;20016;-79
2021/12/27 03:42:56;;;;;;;9.05;5.75;;;7.10;99.90;;;;;;5021847;28;20038;-78
2021/12/27 03:45:26;;;;;;;9.55;6.10;;;7.10;99.90;;;;;;5022330;28;20045;-78
2021/12/27 03:47:52;;;;;;;7.68;5.43;;;7.10;99.90;;;;;;5022997;28;20075;-77
2021/12/27 03:50:18;;;;;;;8.32;5.97;;;7.10;99.90;;;;;;5022114;28;20084;-77
2021/12/27 03:52:44;;;;;;;8.73;5.80;;;7.10;99.90;;;;;;5023052;28;20312;-77
2021/12/27 03:55:11;;;;;;;9.43;6.18;;;7.00;99.90;;;;;;5021419;28;20032;-77
2021/12/27 03:57:40;;;;;;;10.55;6.47;;;7.10;99.90;;;;;;5023199;28;20067;-77
2021/12/27 04:00:27;;;;;;;10.10;6.72;;;7.10;99.90;;;;;;5021607;28;20100;-77
2021/12/27 04:02:55;;;;;;;10.10;6.68;;;7.00;99.90;;;;;;5022055;28;20096;-77
2021/12/27 04:05:21;;;;;;;;;;;7.00;99.90;;;;;;5023733;28;20108;-77
2021/12/27 04:07:56;;;;;;;11.60;7.00;;;7.00;99.90;;;;;;5021840;28;19902;-77
2021/12/27 04:10:22;;;;;;;11.02;6.97;;;7.00;99.90;;;;;;5023396;28;20041;-77
2021/12/27 04:12:48;;;;;;;12.05;7.40;;;6.90;99.90;;;;;;5022902;28;20040;-77
2021/12/27 04:15:14;;;;;;;13.48;8.15;;;6.90;99.90;;;;;;5021905;28;20041;-76
2021/12/27 04:17:40;;;;;;;13.57;8.13;;;6.80;99.90;;;;;;5006654;28;20224;-78
2021/12/27 04:20:06;;;;;;;16.77;8.63;;;6.80;99.90;;;;;;5002945;28;20034;-77
2021/12/27 04:22:33;;;;;;;19.38;9.35;;;6.90;99.90;;;;;;5002064;28;20030;-77
2021/12/27 04:25:00;;;;;;;20.70;9.43;;;6.80;99.90;;;;;;5002830;28;20038;-77
2021/12/27 04:27:26;;;;;;;19.38;10.32;;;6.80;99.90;;;;;;4986098;28;20217;-77
2021/12/27 04:29:53;;;;;;;16.35;7.85;;;6.80;99.90;;;;;;5011598;28;20077;-77
2021/12/27 04:32:18;;;;;;;14.60;7.40;;;6.80;99.90;;;;;;5015279;28;20038;-78
2021/12/27 04:34:44;;;;;;;13.02;6.78;;;6.80;99.90;;;;;;5012156;28;20022;-77
2021/12/27 04:37:16;;;;;;;13.82;7.07;;;6.80;99.90;;;;;;5013237;28;20041;-78
2021/12/27 04:39:41;;;;;;;12.82;7.10;;;6.80;99.90;;;;;;5024445;28;20037;-78
2021/12/27 04:42:08;;;;;;;12.52;6.88;;;6.80;99.90;;;;;;5025822;28;20033;-78
2021/12/27 04:44:34;;;;;;;10.45;6.53;;;6.80;99.90;;;;;;5027293;28;20085;-78
2021/12/27 04:47:01;;;;;;;10.43;6.70;;;6.80;99.90;;;;;;5025565;28;20072;-78
2021/12/27 04:49:27;;;;;;;10.13;5.85;;;6.80;99.90;;;;;;5025713;28;20298;-77
2021/12/27 04:51:54;;;;;;;9.90;6.63;;;6.80;99.90;;;;;;5025344;28;20197;-77
2021/12/27 04:54:20;;;;;;;12.93;6.47;;;6.90;99.90;;;;;;5026975;28;20052;-77
2021/12/27 04:56:47;;;;;;;14.52;7.50;;;6.90;99.90;;;;;;5025483;28;20093;-77
2021/12/27 04:59:13;;;;;;;18.38;8.70;;;6.90;99.90;;;;;;5024846;28;20132;-78
2021/12/27 05:01:39;;;;;;;15.23;7.38;;;6.90;99.90;;;;;;5025698;28;20068;-78
2021/12/27 05:04:04;;;;;;;12.60;7.07;;;6.90;99.90;;;;;;5025193;28;20104;-76
2021/12/27 05:06:30;;;;;;;11.43;7.07;;;7.00;99.90;;;;;;5025526;28;20022;-76
2021/12/27 05:08:56;;;;;;;12.73;6.45;;;7.00;99.90;;;;;;5026766;28;20312;-76
2021/12/27 05:11:22;;;;;;;10.63;6.80;;;7.00;99.90;;;;;;5026259;28;20057;-76
2021/12/27 05:13:48;;;;;;;11.50;7.22;;;7.00;99.90;;;;;;5025910;28;20033;-77
2021/12/27 05:16:14;;;;;;;10.35;6.68;;;7.00;99.90;;;;;;5026172;28;20088;-76
2021/12/27 05:18:40;;;;;;;12.35;5.95;;;7.00;99.90;;;;;;5024586;28;20224;-77
2021/12/27 05:21:05;;;;;;;11.23;6.47;;;7.00;99.90;;;;;;5024638;28;20217;-77
2021/12/27 05:23:33;;;;;;;11.05;6.88;;;7.00;99.90;;;;;;5024866;28;20351;-76
2021/12/27 05:25:59;;;;;;;15.13;7.05;;;7.00;99.90;;;;;;5024279;28;20044;-79
2021/12/27 05:28:25;;;;;;;13.63;7.22;;;7.00;99.90;;;;;;5025947;28;20097;-78
2021/12/27 05:30:51;;;;;;;11.73;6.28;;;7.00;99.90;;;;;;5024322;28;20025;-78
2021/12/27 05:33:18;;;;;;;12.30;6.72;;;7.00;99.90;;;;;;5025994;28;20033;-77
2021/12/27 05:35:46;;;;;;;12.20;6.35;;;7.10;99.90;;;;;;5025720;28;20022;-76
2021/12/27 05:38:13;;;;;;;9.27;6.10;;;7.10;99.90;;;;;;5023951;28;20021;-79
2021/12/27 05:40:39;;;;;;;14.60;6.85;;;7.00;99.90;;;;;;5025343;28;20036;-77
2021/12/27 05:43:06;;;;;;;16.48;7.45;;;7.00;99.90;;;;;;5024268;28;20026;-76
2021/12/27 05:45:33;;;;;;;16.20;7.53;;;7.00;99.90;;;;;;5025986;28;20041;-77
2021/12/27 05:47:59;;;;;;;13.80;7.03;;;7.00;99.90;;;;;;5025036;28;20038;-76
2021/12/27 05:50:25;;;;;;;18.25;7.72;;;7.00;99.90;;;;;;5008142;28;20029;-76
2021/12/27 05:52:51;;;;;;;15.20;6.55;;;7.00;99.90;;;;;;5024312;28;20106;-77
2021/12/27 05:55:17;;;;;;;21.20;8.45;;;7.00;99.90;;;;;;5024087;28;20053;-77
2021/12/27 05:57:43;;;;;;;17.13;7.50;;;7.00;99.90;;;;;;5024407;28;20064;-78
2021/12/27 06:00:11;;;;;;;15.05;6.63;;;7.00;99.90;;;;;;5015069;28;20461;-76
2021/12/27 06:02:41;;;;;;;10.85;6.43;;;7.00;99.90;;;;;;5010703;28;20081;-76
2021/12/27 06:05:08;;;;;;;9.32;6.07;;;6.90;99.90;;;;;;5004048;28;20046;-78
2021/12/27 06:07:34;;;;;;;9.63;6.10;;;6.90;99.90;;;;;;5023846;28;20089;-77
2021/12/27 06:09:59;;;;;;;12.52;6.25;;;6.90;99.90;;;;;;5019666;28;20220;-77
2021/12/27 06:12:25;;;;;;;10.73;5.68;;;6.90;99.90;;;;;;5005446;28;20237;-77
2021/12/27 06:14:51;;;;;;;9.57;5.85;;;6.80;99.90;;;;;;5004825;28;20367;-77
2021/12/27 06:17:17;;;;;;;10.05;5.75;;;6.80;99.90;;;;;;5004957;28;20038;-79
2021/12/27 06:19:42;;;;;;;10.98;6.45;;;6.70;99.90;;;;;;5018762;28;20101;-77
2021/12/27 06:22:08;;;;;;;10.60;6.20;;;6.70;99.90;;;;;;5024922;28;20083;-77
2021/12/27 06:24:34;;;;;;;9.98;5.38;;;6.60;99.90;;;;;;5025229;28;20053;-78
2021/12/27 06:27:00;;;;;;;9.65;5.60;;;6.50;99.90;;;;;;5024705;28;20097;-76
2021/12/27 06:29:26;;;;;;;8.00;5.07;;;6.40;99.90;;;;;;5025139;28;20092;-77
2021/12/27 06:31:52;;;;;;;8.52;5.40;;;6.30;99.90;;;;;;5022425;28;20049;-77
2021/12/27 06:34:17;;;;;;;8.45;5.47;;;6.10;99.90;;;;;;5023881;28;20331;-77
2021/12/27 06:36:44;;;;;;;11.00;6.40;;;6.00;99.90;;;;;;5024524;28;20064;-78
2021/12/27 06:39:10;;;;;;;7.53;5.63;;;5.90;99.90;;;;;;5023200;28;20151;-77
2021/12/27 06:41:36;;;;;;;11.05;6.57;;;5.70;99.90;;;;;;5022743;28;20054;-78
2021/12/27 06:44:04;;;;;;;10.27;6.97;;;5.70;99.90;;;;;;5024381;28;20080;-77
2021/12/27 06:46:29;;;;;;;8.43;5.72;;;5.60;99.90;;;;;;5022894;28;20038;-77
2021/12/27 06:48:55;;;;;;;9.73;6.68;;;5.40;99.90;;;;;;5024309;28;20053;-77
2021/12/27 06:51:22;;;;;;;10.60;6.70;;;5.30;99.90;;;;;;5024241;28;20029;-77
2021/12/27 06:53:47;;;;;;;10.20;7.22;;;5.30;99.90;;;;;;5007120;28;20057;-77
2021/12/27 06:56:13;;;;;;;9.85;6.70;;;5.30;99.90;;;;;;5023207;28;20033;-79
2021/12/27 06:58:40;;;;;;;10.77;6.57;;;5.30;99.90;;;;;;5024030;28;20297;-77
2021/12/27 07:01:08;;;;;;;11.98;7.65;;;5.30;99.90;;;;;;5023416;28;20038;-77
2021/12/27 07:03:34;;;;;;;11.90;7.43;;;5.10;99.90;;;;;;5020834;28;20285;-77
2021/12/27 07:06:00;;;;;;;12.70;7.13;;;5.00;99.90;;;;;;5022593;28;20034;-77
2021/12/27 07:08:27;;;;;;;13.73;7.05;;;5.00;99.90;;;;;;5023881;28;20033;-77
2021/12/27 07:10:53;;;;;;;9.65;6.22;;;5.00;99.90;;;;;;5023984;28;20029;-76
2021/12/27 07:13:19;;;;;;;11.40;6.82;;;5.00;99.90;;;;;;5022959;28;20040;-77
2021/12/27 07:15:45;;;;;;;9.98;6.75;;;5.00;99.90;;;;;;5022669;28;20042;-75
2021/12/27 07:18:13;;;;;;;11.20;7.88;;;4.90;99.90;;;;;;5023502;28;20017;-77
2021/12/27 07:20:39;;;;;;;12.70;8.75;;;5.00;99.90;;;;;;5022424;28;20030;-77
2021/12/27 07:23:24;;;;;;;12.35;8.20;;;5.00;99.90;;;;;;5022188;28;20364;-77
2021/12/27 07:25:49;;;;;;;15.85;9.15;;;5.00;99.90;;;;;;5023283;28;20300;-77
2021/12/27 07:28:16;;;;;;;13.43;8.85;;;5.10;99.90;;;;;;5023236;28;20037;-77
2021/12/27 07:30:42;;;;;;;15.95;9.20;;;5.10;99.90;;;;;;5022715;28;20034;-77
2021/12/27 07:33:09;;;;;;;12.45;8.82;;;5.10;99.90;;;;;;5022919;28;20029;-77
2021/12/27 07:35:35;;;;;;;13.60;9.27;;;5.20;99.90;;;;;;5022161;28;20109;-76
2021/12/27 07:38:01;;;;;;;16.42;9.50;;;5.30;99.90;;;;;;5023170;28;20053;-77
2021/12/27 07:40:28;;;;;;;15.38;9.50;;;5.40;99.90;;;;;;5026154;28;20085;-76
2021/12/27 07:42:53;;;;;;;13.90;9.88;;;5.50;99.90;;;;;;5035922;28;20084;-76
2021/12/27 07:45:19;;;;;;;16.10;10.00;;;5.60;99.90;;;;;;5028018;28;20308;-77
2021/12/27 07:47:45;;;;;;;15.10;8.75;;;5.70;99.90;;;;;;5022572;28;20030;-77
2021/12/27 07:50:11;;;;;;;13.90;9.50;;;5.80;99.90;;;;;;5022747;28;20033;-77
2021/12/27 07:52:38;;;;;;;14.43;8.82;;;6.00;99.90;;;;;;5023301;28;20068;-78
2021/12/27 07:55:04;;;;;;;12.65;8.50;;;6.00;99.90;;;;;;5022954;28;20049;-77
2021/12/27 07:57:30;;;;;;;14.43;9.02;;;6.10;99.90;;;;;;5021975;28;20021;-77
2021/12/27 07:59:56;;;;;;;11.63;7.93;;;6.20;99.90;;;;;;5022815;28;20054;-78
2021/12/27 08:02:22;;;;;;;11.45;7.20;;;6.20;99.90;;;;;;5022289;28;20101;-77
2021/12/27 08:04:48;;;;;;;12.63;8.18;;;6.20;99.90;;;;;;5021375;28;20034;-77
2021/12/27 08:07:13;;;;;;;13.45;8.27;;;6.20;99.90;;;;;;5004570;28;20312;-77
2021/12/27 08:09:39;;;;;;;11.43;8.10;;;6.10;99.90;;;;;;5021542;28;20026;-76
2021/12/27 08:12:06;;;;;;;15.77;8.25;;;6.20;99.90;;;;;;5022529;28;20045;-77
2021/12/27 08:14:32;;;;;;;11.32;7.60;;;6.20;99.90;;;;;;5021574;28;20026;-77
2021/12/27 08:16:58;;;;;;;13.10;7.50;;;6.20;99.90;;;;;;5021034;28;20044;-77
2021/12/27 08:19:23;;;;;;;12.48;7.00;;;6.20;99.90;;;;;;5022709;28;20018;-77
2021/12/27 08:21:49;;;;;;;11.77;7.25;;;6.30;99.90;;;;;;5023596;28;20029;-78
2021/12/27 08:24:15;;;;;;;10.88;7.05;;;6.30;99.90;;;;;;5021843;28;20165;-77
2021/12/27 08:26:42;;;;;;;12.25;8.25;;;6.30;99.90;;;;;;5022823;28;20228;-78
2021/12/27 08:29:10;;;;;;;9.57;7.00;;;6.30;99.90;;;;;;5021896;28;20026;-77
2021/12/27 08:31:36;;;;;;;10.35;7.10;;;6.40;99.90;;;;;;5022097;28;20045;-77
2021/12/27 08:34:02;;;;;;;12.90;7.40;;;6.40;99.90;;;;;;5021803;28;20247;-77
2021/12/27 08:36:27;;;;;;;11.25;7.40;;;6.40;99.90;;;;;;5022431;28;20092;-77
2021/12/27 08:38:53;;;;;;;10.00;7.15;;;6.50;99.90;;;;;;5022120;28;20308;-78
2021/12/27 08:41:19;;;;;;;13.32;7.18;;;6.50;99.90;;;;;;5020994;28;20033;-77
2021/12/27 08:43:46;;;;;;;9.35;6.97;;;6.60;99.90;;;;;;5021209;28;20084;-76
2021/12/27 08:46:12;;;;;;;11.30;6.55;;;6.90;99.90;;;;;;5021309;28;20060;-79
2021/12/27 08:48:40;;;;;;;9.70;6.50;;;7.00;99.90;;;;;;5021435;28;20293;-78
2021/12/27 08:51:06;;;;;;;11.03;6.90;;;7.30;99.90;;;;;;5021937;28;20021;-79
2021/12/27 08:53:31;;;;;;;10.02;6.32;;;7.50;99.90;;;;;;5022480;28;20309;-77
2021/12/27 08:55:57;;;;;;;10.05;6.75;;;7.70;99.90;;;;;;5022294;28;20068;-77
2021/12/27 08:58:23;;;;;;;12.68;6.60;;;7.90;99.90;;;;;;5021861;28;20024;-77
2021/12/27 09:00:49;;;;;;;9.10;5.78;;;8.20;99.90;;;;;;5020555;28;20046;-77
2021/12/27 09:03:16;;;;;;;10.00;5.90;;;8.30;99.90;;;;;;5021953;28;20014;-78
2021/12/27 09:05:42;;;;;;;8.80;5.63;;;8.50;99.90;;;;;;5022596;28;20064;-78
2021/12/27 09:08:08;;;;;;;7.63;5.03;;;8.50;99.90;;;;;;5022068;28;20053;-77
2021/12/27 09:10:34;;;;;;;9.73;5.53;;;8.50;99.90;;;;;;5015652;28;20018;-77
2021/12/27 09:13:00;;;;;;;7.32;5.13;;;8.50;99.90;;;;;;5001679;28;20355;-77
2021/12/27 09:15:28;;;;;;;7.63;4.97;;;8.40;99.90;;;;;;5002017;28;20088;-77
2021/12/27 09:17:54;;;;;;;8.90;5.63;;;8.30;99.90;;;;;;5002481;28;20400;-77
2021/12/27 09:20:21;;;;;;;8.27;5.22;;;8.20;99.90;;;;;;5001931;28;20030;-77
2021/12/27 09:22:47;;;;;;;8.23;5.28;;;8.10;99.90;;;;;;5002785;28;20256;-78
2021/12/27 09:25:13;;;;;;;9.00;5.82;;;8.10;99.90;;;;;;5001946;28;20202;-77
2021/12/27 09:27:39;;;;;;;9.73;5.70;;;8.00;99.90;;;;;;5003459;28;20034;-77
2021/12/27 09:30:06;;;;;;;9.45;5.40;;;8.10;99.90;;;;;;5003918;28;20041;-77
2021/12/27 09:32:31;;;;;;;7.63;5.32;;;8.10;99.90;;;;;;5005806;28;20027;-79
2021/12/27 09:34:58;;;;;;;8.02;5.13;;;8.10;99.90;;;;;;5005895;28;20117;-76
2021/12/27 09:37:24;;;;;;;8.50;5.40;;;8.20;99.90;;;;;;5024410;28;20033;-79
2021/12/27 09:39:53;;;;;;;7.82;5.13;;;8.20;99.90;;;;;;5024846;28;20089;-77
2021/12/27 09:42:24;;;;;;;6.38;4.60;;;8.30;99.90;;;;;;5025073;28;20026;-80
2021/12/27 09:44:53;;;;;;;6.32;4.50;;;8.40;99.90;;;;;;5024107;28;20037;-78
2021/12/27 09:47:20;;;;;;;6.60;4.78;;;8.50;99.90;;;;;;5024437;28;20056;-80
2021/12/27 09:49:47;;;;;;;8.95;5.38;;;8.50;99.90;;;;;;5024126;28;20061;-78
2021/12/27 09:52:14;;;;;;;7.90;4.93;;;8.60;99.90;;;;;;5026126;28;20105;-77
2021/12/27 09:54:39;;;;;;;7.55;4.55;;;8.70;99.90;;;;;;5025241;28;20046;-80
2021/12/27 09:57:06;;;;;;;8.43;5.15;;;8.80;99.90;;;;;;5023736;28;20033;-78
2021/12/27 09:59:31;;;;;;;7.32;5.07;;;8.90;99.90;;;;;;5025252;28;20037;-79
2021/12/27 10:01:58;;;;;;;6.43;4.50;;;9.00;99.90;;;;;;5007124;28;20046;-79
2021/12/27 10:04:23;;;;;;;7.32;4.78;;;9.00;99.90;;;;;;5023279;28;20531;-80
2021/12/27 10:06:51;;;;;;;8.35;4.22;;;9.10;99.90;;;;;;5023953;28;20100;-79
2021/12/27 10:09:17;;;;;;;9.50;4.82;;;9.20;99.90;;;;;;5023363;28;20053;-79
2021/12/27 10:11:46;;;;;;;7.18;3.97;;;9.10;99.90;;;;;;5023809;28;20209;-78
2021/12/27 10:14:23;;;;;;;10.07;4.82;;;9.00;99.90;;;;;;5024906;28;20327;-79
2021/12/27 10:16:53;;;;;;;9.00;4.07;;;9.00;99.90;;;;;;5023702;28;20038;-79
2021/12/27 10:19:20;;;;;;;7.70;5.03;;;9.10;99.90;;;;;;5023070;28;20037;-79
2021/12/27 10:21:50;;;;;;;6.50;4.60;;;9.10;99.90;;;;;;5024829;28;20029;-77
2021/12/27 10:24:28;;;;;;;6.65;4.00;;;9.20;99.90;;;;;;5024215;28;20523;-78
2021/12/27 10:27:00;;;;;;;6.28;4.40;;;9.30;99.90;;;;;;5024680;28;20051;-77
2021/12/27 10:29:32;;;;;;;6.53;4.28;;;9.40;99.90;;;;;;5024187;28;20065;-78
2021/12/27 10:32:10;;;;;;;6.55;4.38;;;9.50;99.90;;;;;;5023980;28;20114;-77
2021/12/27 10:34:39;;;;;;;5.75;4.18;;;9.50;99.90;;;;;;5024597;28;20086;-77
2021/12/27 10:37:28;;;;;;;7.57;4.75;;;9.60;99.90;;;;;;5025501;28;20024;-77
2021/12/27 10:39:53;;;;;;;6.68;4.35;;;9.90;99.90;;;;;;5025507;28;20053;-77
2021/12/27 10:42:28;;;;;;;6.47;4.90;;;10.30;99.90;;;;;;5029188;28;20030;-78
2021/12/27 10:45:19;;;;;;;7.20;4.20;;;10.80;99.90;;;;;;5031904;28;20042;-78
2021/12/27 10:47:47;;;;;;;5.75;3.78;;;11.40;99.90;;;;;;5029888;28;20044;-77
2021/12/27 10:50:24;;;;;;;6.65;3.67;;;12.00;99.90;;;;;;5030001;28;20025;-77
2021/12/27 10:52:52;;;;;;;6.70;4.10;;;12.60;99.90;;;;;;5009568;28;20097;-77
2021/12/27 10:55:44;;;;;;;5.45;3.50;;;13.00;99.90;;;;;;5028697;28;20032;-78
2021/12/27 10:58:24;;;;;;;5.10;3.50;;;13.50;99.90;;;;;;5028793;28;20085;-77
2021/12/27 11:00:59;;;;;;;6.72;3.53;;;14.10;99.90;;;;;;5033427;28;20114;-76
2021/12/27 11:03:28;;;;;;;5.65;3.65;;;14.30;99.90;;;;;;5031276;28;20049;-79
2021/12/27 11:05:55;;;;;;;4.47;2.92;;;14.60;99.90;;;;;;5024548;28;20049;-78
2021/12/27 11:08:21;;;;;;;3.90;2.83;;;15.20;99.90;;;;;;5022681;28;20034;-78
2021/12/27 11:10:47;;;;;;;4.75;3.25;;;15.30;99.90;;;;;;5022765;28;20045;-79
2021/12/27 11:13:13;;;;;;;5.60;3.70;;;14.80;99.90;;;;;;5023570;28;20146;-79
2021/12/27 11:15:40;;;;;;;4.65;3.20;;;14.90;99.90;;;;;;5023595;28;20108;-79
2021/12/27 11:18:07;;;;;;;4.20;2.88;;;15.60;99.90;;;;;;5022760;28;20036;-79
2021/12/27 11:20:34;;;;;;;4.10;2.88;;;16.20;99.90;;;;;;5022402;28;20089;-79
2021/12/27 11:23:01;;;;;;;4.05;2.80;;;16.30;99.90;;;;;;5023575;28;20139;-79
2021/12/27 11:25:29;;;;;;;4.20;2.97;;;16.20;99.90;;;;;;5022112;28;20053;-79
2021/12/27 11:27:55;;;;;;;4.30;2.72;;;15.30;99.90;;;;;;5022080;28;20216;-80
2021/12/27 11:30:29;;;;;;;4.55;2.92;;;14.90;99.90;;;;;;5021329;28;20044;-79
2021/12/27 11:33:02;;;;;;;4.65;3.35;;;14.10;99.90;;;;;;5023371;28;20061;-79
2021/12/27 11:35:43;;;;;;;5.13;2.90;;;13.40;99.90;;;;;;5022987;28;20038;-77
2021/12/27 11:38:32;;;;;;;4.93;3.20;;;13.30;99.90;;;;;;5023416;28;20033;-78
2021/12/27 11:41:00;;;;;;;3.78;2.75;;;12.90;99.90;;;;;;5017871;28;20052;-78
2021/12/27 11:43:49;;;;;;;5.57;3.20;;;13.10;99.90;;;;;;5022683;28;20322;-78
2021/12/27 11:46:15;;;;;;;4.95;2.88;;;13.00;99.90;;;;;;5022001;28;20049;-78
2021/12/27 11:48:48;;;;;;;5.38;3.15;;;13.00;99.90;;;;;;5021901;28;20086;-76
2021/12/27 11:51:14;;;;;;;5.25;2.75;;;13.50;99.90;;;;;;5022208;28;20068;-80
2021/12/27 11:53:53;;;;;;;5.03;3.22;;;13.90;99.90;;;;;;5021934;28;20040;-78
2021/12/27 11:56:39;;;;;;;4.97;3.05;;;13.80;99.90;;;;;;5022171;28;20026;-78
2021/12/27 11:59:26;;;;;;;5.00;2.90;;;14.00;99.90;;;;;;5021546;28;20317;-78
2021/12/27 12:01:53;;;;;;;4.60;2.67;;;14.00;99.90;;;;;;5021346;28;20034;-78
2021/12/27 12:04:46;;;;;;;4.80;2.83;;;14.00;99.90;;;;;;5022409;28;20387;-79
2021/12/27 12:07:34;;;;;;;5.28;3.10;;;13.80;99.90;;;;;;5022378;28;20030;-79
2021/12/27 12:10:14;;;;;;;4.57;2.55;;;13.80;99.90;;;;;;5022682;28;20113;-78
2021/12/27 12:12:40;;;;;;;4.60;3.17;;;13.70;99.90;;;;;;5022805;28;20041;-78
2021/12/27 12:15:08;;;;;;;5.57;2.85;;;13.60;99.90;;;;;;5022250;28;20334;-77
2021/12/27 12:17:40;;;;;;;4.07;2.70;;;13.50;99.90;;;;;;5022202;28;20034;-78
2021/12/27 12:20:25;;;;;;;6.70;3.22;;;13.30;99.90;;;;;;5022652;28;20317;-78
2021/12/27 12:23:08;;;;;;;5.03;2.72;;;13.30;99.90;;;;;;5022182;28;20104;-78
2021/12/27 12:25:35;;;;;;;6.35;2.88;;;13.00;99.90;;;;;;5022154;28;20038;-78
2021/12/27 12:28:02;;;;;;;7.63;3.50;;;12.70;99.90;;;;;;5022769;28;20025;-79
2021/12/27 12:30:40;;;;;;;5.18;2.95;;;12.60;99.90;;;;;;5021505;28;20038;-78
2021/12/27 12:33:18;;;;;;;9.25;4.47;;;12.40;99.90;;;;;;5022595;28;20025;-78
2021/12/27 12:35:45;;;;;;;5.03;3.05;;;12.30;99.90;;;;;;5022977;28;20097;-78
2021/12/27 12:38:29;;;;;;;4.93;3.30;;;12.20;99.90;;;;;;5022441;28;20105;-77
2021/12/27 12:41:04;;;;;;;8.60;3.58;;;12.10;99.90;;;;;;5022496;28;20068;-79
2021/12/27 12:43:42;;;;;;;7.60;3.65;;;12.20;99.90;;;;;;5020173;28;20061;-78
2021/12/27 12:46:19;;;;;;;6.50;3.35;;;12.10;99.90;;;;;;5022076;28;20049;-79
2021/12/27 12:49:11;;;;;;;5.40;3.05;;;12.20;99.90;;;;;;5022555;28;20096;-79
2021/12/27 12:51:59;;;;;;;9.45;3.60;;;12.30;99.90;;;;;;5021236;28;20055;-79
2021/12/27 12:54:34;;;;;;;8.48;3.40;;;12.30;99.90;;;;;;5021738;28;20026;-77
2021/12/27 12:57:12;;;;;;;5.43;2.92;;;12.60;99.90;;;;;;5020918;28;20026;-76
2021/12/27 12:59:44;;;;;;;4.60;2.85;;;12.40;99.90;;;;;;5022097;28;20045;-77
2021/12/27 13:02:14;;;;;;;5.63;2.75;;;12.50;99.90;;;;;;5025088;28;20045;-77